sensor_id;sensor_type;location;lat;lon;timestamp;pressure;altitude;pressure_sealevel;temperature;humidity
41800;BME280;27468;47.460;19.034;2022-09-09T00:04:41;100065.75;;;18.74;80.74
41800;BME280;27468;47.460;19.034;2022-09-09T00:09:58;100017.13;;;18.38;81.13
41800;BME280;27468;47.460;19.034;2022-09-09T00:15:23;100034.44;;;18.46;82.06
41800;BME280;27468;47.460;19.034;2022-09-09T00:28:27;100100.78;;;18.53;82.76
41800;BME280;27468;47.460;19.034;2022-09-09T00:30:56;100074.56;;;18.45;82.62
41800;BME280;27468;47.460;19.034;2022-09-09T00:33:26;100066.25;;;18.49;82.56
41800;BME280;27468;47.460;19.034;2022-09-09T00:35:57;100073.41;;;18.49;82.95
41800;BME280;27468;47.460;19.034;2022-09-09T00:38:37;100092.44;;;18.59;83.09
41800;BME280;27468;47.460;19.034;2022-09-09T00:43:39;100071.97;;;18.43;83.42
41800;BME280;27468;47.460;19.034;2022-09-09T00:46:38;100046.25;;;18.27;82.30
41800;BME280;27468;47.460;19.034;2022-09-09T00:52:08;100077.16;;;18.31;82.85
41800;BME280;27468;47.460;19.034;2022-09-09T00:57:30;100045.28;;;18.12;83.38
41800;BME280;27468;47.460;19.034;2022-09-09T01:00:19;100096.88;;;18.44;83.46
41800;BME280;27468;47.460;19.034;2022-09-09T01:08:01;100081.88;;;18.10;84.15
41800;BME280;27468;47.460;19.034;2022-09-09T01:10:41;100096.84;;;18.12;85.03
41800;BME280;27468;47.460;19.034;2022-09-09T01:13:31;100099.94;;;18.21;84.87
41800;BME280;27468;47.460;19.034;2022-09-09T01:16:00;100076.97;;;18.02;85.28
41800;BME280;27468;47.460;19.034;2022-09-09T01:18:30;100053.38;;;17.79;86.25
41800;BME280;27468;47.460;19.034;2022-09-09T01:23:58;100133.88;;;18.19;87.24
41800;BME280;27468;47.460;19.034;2022-09-09T01:26:37;100111.88;;;17.98;88.61
41800;BME280;27468;47.460;19.034;2022-09-09T01:29:22;100132.56;;;18.10;89.15
41800;BME280;27468;47.460;19.034;2022-09-09T01:31:54;100125.75;;;18.04;89.24
41800;BME280;27468;47.460;19.034;2022-09-09T01:34:20;100081.50;;;17.85;88.23
41800;BME280;27468;47.460;19.034;2022-09-09T01:36:53;100113.59;;;17.99;87.84
41800;BME280;27468;47.460;19.034;2022-09-09T01:39:22;100117.91;;;18.01;87.68
41800;BME280;27468;47.460;19.034;2022-09-09T01:41:48;100064.28;;;17.74;86.97
41800;BME280;27468;47.460;19.034;2022-09-09T01:44:14;100069.28;;;17.80;86.94
41800;BME280;27468;47.460;19.034;2022-09-09T01:46:39;100081.50;;;17.85;86.93
41800;BME280;27468;47.460;19.034;2022-09-09T01:49:06;100099.16;;;17.87;87.66
41800;BME280;27468;47.460;19.034;2022-09-09T01:51:34;100078.56;;;17.73;88.00
41800;BME280;27468;47.460;19.034;2022-09-09T01:54:01;100086.31;;;17.78;88.59
41800;BME280;27468;47.460;19.034;2022-09-09T01:59:28;100133.13;;;17.99;90.12
41800;BME280;27468;47.460;19.034;2022-09-09T02:04:39;100119.56;;;17.88;90.34
41800;BME280;27468;47.460;19.034;2022-09-09T02:09:50;100119.88;;;17.82;91.39
41800;BME280;27468;47.460;19.034;2022-09-09T02:12:22;100081.41;;;17.53;91.29
41800;BME280;27468;47.460;19.034;2022-09-09T02:14:55;100117.38;;;17.62;88.77
41800;BME280;27468;47.460;19.034;2022-09-09T02:17:24;100127.25;;;17.77;87.88
41800;BME280;27468;47.460;19.034;2022-09-09T02:19:56;100110.25;;;17.62;88.48
41800;BME280;27468;47.460;19.034;2022-09-09T02:22:27;100118.16;;;17.64;88.70
41800;BME280;27468;47.460;19.034;2022-09-09T02:24:55;100108.84;;;17.55;88.15
41800;BME280;27468;47.460;19.034;2022-09-09T02:27:23;100088.84;;;17.46;86.72
41800;BME280;27468;47.460;19.034;2022-09-09T02:29:49;100111.97;;;17.63;85.75
41800;BME280;27468;47.460;19.034;2022-09-09T02:32:20;100099.97;;;17.55;86.16
41800;BME280;27468;47.460;19.034;2022-09-09T02:34:49;100079.06;;;17.47;86.43
41800;BME280;27468;47.460;19.034;2022-09-09T02:37:23;100073.97;;;17.42;86.68
41800;BME280;27468;47.460;19.034;2022-09-09T02:39:50;100135.19;;;17.78;87.19
41800;BME280;27468;47.460;19.034;2022-09-09T02:42:16;100107.66;;;17.61;87.42
41800;BME280;27468;47.460;19.034;2022-09-09T02:44:42;100102.56;;;17.56;87.52
41800;BME280;27468;47.460;19.034;2022-09-09T02:50:48;100131.91;;;17.73;87.76
41800;BME280;27468;47.460;19.034;2022-09-09T02:58:17;100133.69;;;17.56;87.86
41800;BME280;27468;47.460;19.034;2022-09-09T03:00:45;100129.69;;;17.47;88.77
41800;BME280;27468;47.460;19.034;2022-09-09T03:03:12;100105.59;;;17.33;88.39
41800;BME280;27468;47.460;19.034;2022-09-09T03:05:37;100098.78;;;17.27;87.69
41800;BME280;27468;47.460;19.034;2022-09-09T03:08:04;100098.47;;;17.16;86.23
41800;BME280;27468;47.460;19.034;2022-09-09T03:10:31;100159.78;;;17.49;87.00
41800;BME280;27468;47.460;19.034;2022-09-09T03:12:56;100123.63;;;17.28;86.22
41800;BME280;27468;47.460;19.034;2022-09-09T03:15:22;100107.00;;;17.23;86.08
41800;BME280;27468;47.460;19.034;2022-09-09T03:17:47;100152.03;;;17.44;86.10
41800;BME280;27468;47.460;19.034;2022-09-09T03:20:13;100117.44;;;17.27;86.50
41800;BME280;27468;47.460;19.034;2022-09-09T03:22:38;100083.25;;;17.01;86.70
41800;BME280;27468;47.460;19.034;2022-09-09T03:25:04;100137.38;;;17.36;87.21
41800;BME280;27468;47.460;19.034;2022-09-09T03:27:31;100145.28;;;17.37;87.82
41800;BME280;27468;47.460;19.034;2022-09-09T03:29:57;100089.94;;;17.09;87.39
41800;BME280;27468;47.460;19.034;2022-09-09T03:32:23;100091.72;;;17.09;86.90
41800;BME280;27468;47.460;19.034;2022-09-09T03:34:51;100136.53;;;17.35;87.05
41800;BME280;27468;47.460;19.034;2022-09-09T03:37:17;100142.63;;;17.37;87.89
41800;BME280;27468;47.460;19.034;2022-09-09T03:39:43;100093.28;;;16.96;88.51
41800;BME280;27468;47.460;19.034;2022-09-09T03:42:08;100142.59;;;17.22;89.17
41800;BME280;27468;47.460;19.034;2022-09-09T03:44:34;100138.50;;;17.14;90.10
41800;BME280;27468;47.460;19.034;2022-09-09T03:46:59;100119.84;;;16.97;90.11
41800;BME280;27468;47.460;19.034;2022-09-09T03:49:27;100178.00;;;17.24;90.16
41800;BME280;27468;47.460;19.034;2022-09-09T03:51:55;100170.09;;;17.22;90.38
41800;BME280;27468;47.460;19.034;2022-09-09T03:54:22;100164.13;;;17.17;90.58
41800;BME280;27468;47.460;19.034;2022-09-09T03:56:47;100175.50;;;17.21;90.40
41800;BME280;27468;47.460;19.034;2022-09-09T03:59:13;100137.31;;;17.03;90.89
41800;BME280;27468;47.460;19.034;2022-09-09T04:01:39;100144.75;;;16.96;91.53
41800;BME280;27468;47.460;19.034;2022-09-09T04:04:05;100150.31;;;17.09;91.09
41800;BME280;27468;47.460;19.034;2022-09-09T04:06:30;100178.53;;;17.13;91.24
41800;BME280;27468;47.460;19.034;2022-09-09T04:08:56;100151.09;;;16.94;92.98
41800;BME280;27468;47.460;19.034;2022-09-09T04:11:21;100148.09;;;16.82;93.10
41800;BME280;27468;47.460;19.034;2022-09-09T04:13:47;100179.28;;;16.98;93.40
41800;BME280;27468;47.460;19.034;2022-09-09T04:16:13;100135.41;;;16.70;94.50
41800;BME280;27468;47.460;19.034;2022-09-09T04:18:40;100126.03;;;16.62;94.86
41800;BME280;27468;47.460;19.034;2022-09-09T04:21:05;100088.22;;;16.36;94.51
41800;BME280;27468;47.460;19.034;2022-09-09T04:23:32;100181.53;;;16.88;94.65
41800;BME280;27468;47.460;19.034;2022-09-09T04:26:00;100157.31;;;16.75;95.32
41800;BME280;27468;47.460;19.034;2022-09-09T04:28:29;100162.47;;;16.78;95.14
41800;BME280;27468;47.460;19.034;2022-09-09T04:30:55;100068.09;;;16.31;94.87
41800;BME280;27468;47.460;19.034;2022-09-09T04:33:23;100152.63;;;16.80;94.83
41800;BME280;27468;47.460;19.034;2022-09-09T04:35:51;100129.28;;;16.68;94.82
41800;BME280;27468;47.460;19.034;2022-09-09T04:38:18;100161.25;;;16.86;95.20
41800;BME280;27468;47.460;19.034;2022-09-09T04:40:46;100120.13;;;16.55;95.18
41800;BME280;27468;47.460;19.034;2022-09-09T04:43:12;100140.81;;;16.69;94.93
41800;BME280;27468;47.460;19.034;2022-09-09T04:45:39;100153.56;;;16.79;94.77
41800;BME280;27468;47.460;19.034;2022-09-09T04:48:06;100168.22;;;16.88;94.71
41800;BME280;27468;47.460;19.034;2022-09-09T04:50:31;100136.97;;;16.74;94.92
41800;BME280;27468;47.460;19.034;2022-09-09T04:53:00;100045.78;;;16.16;94.61
41800;BME280;27468;47.460;19.034;2022-09-09T04:55:26;100134.13;;;16.77;94.28
41800;BME280;27468;47.460;19.034;2022-09-09T04:57:51;100153.97;;;16.89;94.26
41800;BME280;27468;47.460;19.034;2022-09-09T05:00:17;100164.19;;;16.98;94.06
41800;BME280;27468;47.460;19.034;2022-09-09T05:02:42;100163.38;;;16.96;93.92
41800;BME280;27468;47.460;19.034;2022-09-09T05:05:08;100101.97;;;16.65;93.76
41800;BME280;27468;47.460;19.034;2022-09-09T05:07:33;100125.63;;;16.88;93.52
41800;BME280;27468;47.460;19.034;2022-09-09T05:09:59;100183.16;;;17.09;93.39
41800;BME280;27468;47.460;19.034;2022-09-09T05:12:25;100132.66;;;16.89;93.54
41800;BME280;27468;47.460;19.034;2022-09-09T05:14:51;100171.19;;;17.18;93.50
41800;BME280;27468;47.460;19.034;2022-09-09T05:17:17;100167.50;;;17.21;93.26
41800;BME280;27468;47.460;19.034;2022-09-09T05:19:43;100159.09;;;17.11;93.93
41800;BME280;27468;47.460;19.034;2022-09-09T05:22:09;100160.59;;;17.16;93.76
41800;BME280;27468;47.460;19.034;2022-09-09T05:24:37;100122.44;;;16.99;93.88
41800;BME280;27468;47.460;19.034;2022-09-09T05:27:03;100117.41;;;17.10;93.63
41800;BME280;27468;47.460;19.034;2022-09-09T05:29:30;100159.41;;;17.39;93.36
41800;BME280;27468;47.460;19.034;2022-09-09T05:31:58;100095.41;;;17.06;93.23
41800;BME280;27468;47.460;19.034;2022-09-09T05:34:25;100081.94;;;17.09;92.84
41800;BME280;27468;47.460;19.034;2022-09-09T05:36:51;100098.63;;;17.30;92.29
41800;BME280;27468;47.460;19.034;2022-09-09T05:39:17;100088.28;;;17.24;92.11
41800;BME280;27468;47.460;19.034;2022-09-09T05:41:42;100115.19;;;17.53;91.75
41800;BME280;27468;47.460;19.034;2022-09-09T05:44:08;100122.53;;;17.65;91.11
41800;BME280;27468;47.460;19.034;2022-09-09T05:46:33;100154.38;;;17.85;90.96
41800;BME280;27468;47.460;19.034;2022-09-09T05:48:59;100181.28;;;18.13;90.85
41800;BME280;27468;47.460;19.034;2022-09-09T05:51:26;100086.16;;;17.64;90.29
41800;BME280;27468;47.460;19.034;2022-09-09T05:53:55;100125.38;;;17.95;90.16
41800;BME280;27468;47.460;19.034;2022-09-09T05:56:25;100172.34;;;18.30;90.00
41800;BME280;27468;47.460;19.034;2022-09-09T05:58:52;100168.41;;;18.37;89.38
41800;BME280;27468;47.460;19.034;2022-09-09T06:01:27;100166.28;;;18.44;88.93
41800;BME280;27468;47.460;19.034;2022-09-09T06:03:53;100169.34;;;18.52;88.66
41800;BME280;27468;47.460;19.034;2022-09-09T06:06:21;100149.97;;;18.48;88.14
41800;BME280;27468;47.460;19.034;2022-09-09T06:08:50;100167.22;;;18.74;87.83
41800;BME280;27468;47.460;19.034;2022-09-09T06:11:23;100169.88;;;18.90;87.39
41800;BME280;27468;47.460;19.034;2022-09-09T06:13:50;100113.09;;;18.55;86.18
41800;BME280;27468;47.460;19.034;2022-09-09T06:16:20;100185.44;;;19.13;85.47
41800;BME280;27468;47.460;19.034;2022-09-09T06:18:48;100204.56;;;19.22;84.38
41800;BME280;27468;47.460;19.034;2022-09-09T06:21:21;100181.28;;;19.24;82.89
41800;BME280;27468;47.460;19.034;2022-09-09T06:23:48;100164.63;;;19.19;82.62
41800;BME280;27468;47.460;19.034;2022-09-09T06:26:17;100191.94;;;19.39;82.71
41800;BME280;27468;47.460;19.034;2022-09-09T06:28:44;100154.38;;;19.27;81.68
41800;BME280;27468;47.460;19.034;2022-09-09T06:31:12;100179.06;;;19.46;81.02
41800;BME280;27468;47.460;19.034;2022-09-09T06:33:39;100190.19;;;19.68;80.62
41800;BME280;27468;47.460;19.034;2022-09-09T06:36:10;100145.94;;;19.49;79.53
41800;BME280;27468;47.460;19.034;2022-09-09T06:38:36;100118.31;;;19.34;79.00
41800;BME280;27468;47.460;19.034;2022-09-09T06:41:01;100194.34;;;19.88;78.78
41800;BME280;27468;47.460;19.034;2022-09-09T06:43:27;100163.88;;;19.91;78.49
41800;BME280;27468;47.460;19.034;2022-09-09T06:46:02;100164.34;;;19.97;77.57
41800;BME280;27468;47.460;19.034;2022-09-09T06:48:28;100161.00;;;19.94;75.70
41800;BME280;27468;47.460;19.034;2022-09-09T06:53:26;100176.59;;;20.01;75.22
41800;BME280;27468;47.460;19.034;2022-09-09T06:55:52;100194.09;;;20.21;76.10
41800;BME280;27468;47.460;19.034;2022-09-09T06:58:17;100153.75;;;20.10;75.89
41800;BME280;27468;47.460;19.034;2022-09-09T07:00:43;100163.66;;;20.22;75.81
41800;BME280;27468;47.460;19.034;2022-09-09T07:03:10;100160.03;;;20.23;75.43
41800;BME280;27468;47.460;19.034;2022-09-09T07:05:35;100188.59;;;20.37;73.95
41800;BME280;27468;47.460;19.034;2022-09-09T07:08:01;100183.44;;;20.34;74.45
41800;BME280;27468;47.460;19.034;2022-09-09T07:10:27;100170.53;;;20.26;75.03
41800;BME280;27468;47.460;19.034;2022-09-09T07:12:53;100200.97;;;20.39;75.50
41800;BME280;27468;47.460;19.034;2022-09-09T07:15:18;100179.94;;;20.19;76.02
41800;BME280;27468;47.460;19.034;2022-09-09T07:17:44;100218.34;;;20.32;76.06
41800;BME280;27468;47.460;19.034;2022-09-09T07:20:10;100113.41;;;19.70;76.56
41800;BME280;27468;47.460;19.034;2022-09-09T07:22:36;100173.72;;;20.04;76.98
41800;BME280;27468;47.460;19.034;2022-09-09T07:25:02;100213.28;;;20.14;76.19
41800;BME280;27468;47.460;19.034;2022-09-09T07:27:28;100124.59;;;19.63;76.79
41800;BME280;27468;47.460;19.034;2022-09-09T07:29:53;100165.78;;;19.89;77.11
41800;BME280;27468;47.460;19.034;2022-09-09T07:32:19;100156.59;;;19.78;77.40
41800;BME280;27468;47.460;19.034;2022-09-09T07:34:45;100218.84;;;20.10;77.08
41800;BME280;27468;47.460;19.034;2022-09-09T07:37:13;100214.81;;;20.03;76.48
41800;BME280;27468;47.460;19.034;2022-09-09T07:39:39;100151.53;;;19.60;75.53
41800;BME280;27468;47.460;19.034;2022-09-09T07:42:05;100175.13;;;19.82;75.72
41800;BME280;27468;47.460;19.034;2022-09-09T07:44:31;100208.50;;;19.90;75.74
41800;BME280;27468;47.460;19.034;2022-09-09T07:47:00;100194.91;;;19.79;75.98
41800;BME280;27468;47.460;19.034;2022-09-09T07:49:25;100224.09;;;19.98;75.22
41800;BME280;27468;47.460;19.034;2022-09-09T07:51:51;100218.63;;;19.99;75.90
41800;BME280;27468;47.460;19.034;2022-09-09T07:54:18;100216.34;;;19.93;75.90
41800;BME280;27468;47.460;19.034;2022-09-09T07:56:46;100212.50;;;19.97;75.53
41800;BME280;27468;47.460;19.034;2022-09-09T07:59:12;100182.28;;;19.81;75.34
41800;BME280;27468;47.460;19.034;2022-09-09T08:01:44;100191.47;;;19.91;74.95
41800;BME280;27468;47.460;19.034;2022-09-09T08:04:13;100158.78;;;19.72;74.30
41800;BME280;27468;47.460;19.034;2022-09-09T08:06:42;100156.69;;;19.77;73.87
41800;BME280;27468;47.460;19.034;2022-09-09T08:09:09;100192.25;;;20.07;69.55
41800;BME280;27468;47.460;19.034;2022-09-09T08:11:35;100205.53;;;20.23;66.27
41800;BME280;27468;47.460;19.034;2022-09-09T08:14:01;100156.13;;;20.00;64.39
41800;BME280;27468;47.460;19.034;2022-09-09T08:16:33;100194.44;;;20.29;65.59
41800;BME280;27468;47.460;19.034;2022-09-09T08:19:02;100161.69;;;20.11;64.21
41800;BME280;27468;47.460;19.034;2022-09-09T08:21:30;100190.81;;;20.30;64.63
41800;BME280;27468;47.460;19.034;2022-09-09T08:23:58;100203.94;;;20.49;63.41
41800;BME280;27468;47.460;19.034;2022-09-09T08:26:26;100211.75;;;20.66;61.94
41800;BME280;27468;47.460;19.034;2022-09-09T08:28:54;100196.16;;;20.59;61.95
41800;BME280;27468;47.460;19.034;2022-09-09T08:33:50;100193.75;;;20.68;61.95
41800;BME280;27468;47.460;19.034;2022-09-09T08:36:19;100157.81;;;20.58;60.66
41800;BME280;27468;47.460;19.034;2022-09-09T08:38:52;100161.81;;;20.65;60.39
41800;BME280;27468;47.460;19.034;2022-09-09T08:46:53;100189.72;;;21.02;59.27
41800;BME280;27468;47.460;19.034;2022-09-09T08:50:05;100195.03;;;21.17;57.03
41800;BME280;27468;47.460;19.034;2022-09-09T08:52:28;100209.59;;;21.27;57.19
41800;BME280;27468;47.460;19.034;2022-09-09T08:55:05;100206.59;;;21.31;56.78
41800;BME280;27468;47.460;19.034;2022-09-09T08:57:38;100194.47;;;21.38;57.58
41800;BME280;27468;47.460;19.034;2022-09-09T09:00:04;100155.22;;;21.50;58.98
41800;BME280;27468;47.460;19.034;2022-09-09T09:02:56;100152.97;;;21.31;60.39
41800;BME280;27468;47.460;19.034;2022-09-09T09:08:09;100193.13;;;21.58;60.76
41800;BME280;27468;47.460;19.034;2022-09-09T09:13:01;100172.06;;;21.52;61.91
41800;BME280;27468;47.460;19.034;2022-09-09T09:15:35;100206.78;;;21.68;60.71
41800;BME280;27468;47.460;19.034;2022-09-09T09:18:02;100173.69;;;21.55;60.93
41800;BME280;27468;47.460;19.034;2022-09-09T09:20:39;100200.03;;;21.75;60.18
41800;BME280;27468;47.460;19.034;2022-09-09T09:23:24;100164.06;;;21.65;60.38
41800;BME280;27468;47.460;19.034;2022-09-09T09:25:50;100187.59;;;21.87;58.92
41800;BME280;27468;47.460;19.034;2022-09-09T09:28:23;100177.81;;;21.86;58.74
41800;BME280;27468;47.460;19.034;2022-09-09T09:30:57;100178.25;;;21.92;57.49
41800;BME280;27468;47.460;19.034;2022-09-09T09:34:03;100185.72;;;22.00;56.82
41800;BME280;27468;47.460;19.034;2022-09-09T09:36:57;100176.72;;;22.01;57.11
41800;BME280;27468;47.460;19.034;2022-09-09T09:39:27;100179.63;;;22.11;57.35
41800;BME280;27468;47.460;19.034;2022-09-09T09:41:53;100163.50;;;21.98;55.94
41800;BME280;27468;47.460;19.034;2022-09-09T09:44:31;100166.88;;;22.01;56.56
41800;BME280;27468;47.460;19.034;2022-09-09T09:49:31;100130.69;;;21.94;52.92
41800;BME280;27468;47.460;19.034;2022-09-09T09:52:12;100182.94;;;22.39;48.79
41800;BME280;27468;47.460;19.034;2022-09-09T09:54:42;100132.47;;;22.19;47.92
41800;BME280;27468;47.460;19.034;2022-09-09T09:57:17;100151.38;;;22.30;47.65
41800;BME280;27468;47.460;19.034;2022-09-09T09:59:43;100154.56;;;22.48;47.40
41800;BME280;27468;47.460;19.034;2022-09-09T10:02:22;100181.78;;;22.67;47.71
41800;BME280;27468;47.460;19.034;2022-09-09T10:07:31;100154.34;;;22.75;47.29
41800;BME280;27468;47.460;19.034;2022-09-09T10:09:57;100173.09;;;23.00;46.22
41800;BME280;27468;47.460;19.034;2022-09-09T10:12:55;100172.03;;;23.03;46.96
41800;BME280;27468;47.460;19.034;2022-09-09T10:18:35;100176.09;;;23.20;46.31
41800;BME280;27468;47.460;19.034;2022-09-09T10:21:32;100162.31;;;23.24;43.41
41800;BME280;27468;47.460;19.034;2022-09-09T10:27:11;100144.47;;;23.23;43.61
41800;BME280;27468;47.460;19.034;2022-09-09T10:29:52;100146.69;;;23.29;43.77
41800;BME280;27468;47.460;19.034;2022-09-09T10:32:30;100170.97;;;23.52;44.38
41800;BME280;27468;47.460;19.034;2022-09-09T10:35:09;100132.19;;;23.43;43.66
41800;BME280;27468;47.460;19.034;2022-09-09T10:43:39;100172.03;;;23.84;40.85
41800;BME280;27468;47.460;19.034;2022-09-09T10:52:29;100131.41;;;23.76;39.67
41800;BME280;27468;47.460;19.034;2022-09-09T10:57:59;100156.16;;;24.03;36.38
41800;BME280;27468;47.460;19.034;2022-09-09T11:00:39;100158.25;;;24.00;37.75
41800;BME280;27468;47.460;19.034;2022-09-09T11:03:06;100116.97;;;23.77;37.72
41800;BME280;27468;47.460;19.034;2022-09-09T11:05:45;100137.78;;;23.97;37.09
41800;BME280;27468;47.460;19.034;2022-09-09T11:08:21;100152.88;;;24.11;38.07
41800;BME280;27468;47.460;19.034;2022-09-09T11:11:11;100134.75;;;24.02;38.75
41800;BME280;27468;47.460;19.034;2022-09-09T11:14:01;100153.59;;;24.13;39.32
41800;BME280;27468;47.460;19.034;2022-09-09T11:16:42;100146.88;;;24.19;38.62
41800;BME280;27468;47.460;19.034;2022-09-09T11:21:50;100129.00;;;24.18;37.59
41800;BME280;27468;47.460;19.034;2022-09-09T11:26:55;100142.47;;;24.29;38.82
41800;BME280;27468;47.460;19.034;2022-09-09T11:42:35;100097.03;;;24.24;38.65
41800;BME280;27468;47.460;19.034;2022-09-09T11:45:31;100132.03;;;24.58;37.19
41800;BME280;27468;47.460;19.034;2022-09-09T11:48:00;100122.09;;;24.47;38.90
41800;BME280;27468;47.460;19.034;2022-09-09T11:52:51;100128.22;;;24.60;39.97
41800;BME280;27468;47.460;19.034;2022-09-09T11:55:30;100125.16;;;24.65;39.67
41800;BME280;27468;47.460;19.034;2022-09-09T11:58:05;100105.78;;;24.60;39.31
41800;BME280;27468;47.460;19.034;2022-09-09T12:00:57;100117.53;;;24.70;39.91
41800;BME280;27468;47.460;19.034;2022-09-09T12:08:53;100116.72;;;24.90;40.14
41800;BME280;27468;47.460;19.034;2022-09-09T12:11:28;100141.09;;;25.00;39.62
41800;BME280;27468;47.460;19.034;2022-09-09T12:13:59;100132.09;;;24.79;40.19
41800;BME280;27468;47.460;19.034;2022-09-09T12:19:14;100143.69;;;24.90;41.21
41800;BME280;27468;47.460;19.034;2022-09-09T12:21:50;100137.44;;;24.90;40.97
41800;BME280;27468;47.460;19.034;2022-09-09T12:24:34;100099.06;;;24.86;41.04
41800;BME280;27468;47.460;19.034;2022-09-09T12:27:17;100099.91;;;24.98;41.30
41800;BME280;27468;47.460;19.034;2022-09-09T12:29:57;100137.88;;;25.38;40.01
41800;BME280;27468;47.460;19.034;2022-09-09T12:32:25;100118.06;;;25.28;40.68
41800;BME280;27468;47.460;19.034;2022-09-09T12:35:04;100128.47;;;25.32;40.16
41800;BME280;27468;47.460;19.034;2022-09-09T12:37:53;100113.13;;;25.33;40.33
41800;BME280;27468;47.460;19.034;2022-09-09T12:40:26;100117.81;;;25.31;40.50
41800;BME280;27468;47.460;19.034;2022-09-09T12:42:52;100113.13;;;25.33;40.68
41800;BME280;27468;47.460;19.034;2022-09-09T12:45:25;100122.28;;;25.42;40.69
41800;BME280;27468;47.460;19.034;2022-09-09T12:47:56;100073.66;;;25.32;40.34
41800;BME280;27468;47.460;19.034;2022-09-09T12:52:52;100091.41;;;25.34;41.20
41800;BME280;27468;47.460;19.034;2022-09-09T12:55:23;100092.19;;;25.25;41.35
41800;BME280;27468;47.460;19.034;2022-09-09T12:57:51;100098.31;;;25.27;41.41
41800;BME280;27468;47.460;19.034;2022-09-09T13:00:24;100108.78;;;25.42;41.35
41800;BME280;27468;47.460;19.034;2022-09-09T13:02:55;100053.94;;;24.99;41.01
41800;BME280;27468;47.460;19.034;2022-09-09T13:05:24;100061.84;;;25.12;40.75
41800;BME280;27468;47.460;19.034;2022-09-09T13:07:50;100082.06;;;25.18;40.76
41800;BME280;27468;47.460;19.034;2022-09-09T13:10:26;100077.91;;;25.14;40.65
41800;BME280;27468;47.460;19.034;2022-09-09T13:12:54;100032.50;;;24.87;40.67
41800;BME280;27468;47.460;19.034;2022-09-09T13:15:24;100085.59;;;25.18;40.47
41800;BME280;27468;47.460;19.034;2022-09-09T13:18:01;100072.78;;;25.11;39.77
41800;BME280;27468;47.460;19.034;2022-09-09T13:20:28;100037.66;;;24.90;39.96
41800;BME280;27468;47.460;19.034;2022-09-09T13:22:55;100055.00;;;25.08;39.56
41800;BME280;27468;47.460;19.034;2022-09-09T13:25:26;100035.25;;;25.08;38.90
41800;BME280;27468;47.460;19.034;2022-09-09T13:27:53;100074.97;;;25.38;38.01
41800;BME280;27468;47.460;19.034;2022-09-09T13:32:59;100072.84;;;25.41;39.50
41800;BME280;27468;47.460;19.034;2022-09-09T13:35:26;100070.78;;;25.54;37.22
41800;BME280;27468;47.460;19.034;2022-09-09T13:37:52;100065.69;;;25.61;38.90
41800;BME280;27468;47.460;19.034;2022-09-09T13:40:21;100059.56;;;25.59;40.63
41800;BME280;27468;47.460;19.034;2022-09-09T13:42:47;100058.44;;;25.61;39.22
41800;BME280;27468;47.460;19.034;2022-09-09T13:45:21;100052.28;;;25.71;34.92
41800;BME280;27468;47.460;19.034;2022-09-09T13:47:46;100057.72;;;25.80;37.49
41800;BME280;27468;47.460;19.034;2022-09-09T13:50:28;100062.88;;;25.83;36.35
41800;BME280;27468;47.460;19.034;2022-09-09T13:52:55;100043.38;;;25.80;37.10
41800;BME280;27468;47.460;19.034;2022-09-09T13:55:25;99981.81;;;25.53;36.32
41800;BME280;27468;47.460;19.034;2022-09-09T14:00:21;100037.09;;;26.19;35.99
41800;BME280;27468;47.460;19.034;2022-09-09T14:02:51;100032.75;;;26.38;36.05
41800;BME280;27468;47.460;19.034;2022-09-09T14:05:17;100014.28;;;26.43;35.90
41800;BME280;27468;47.460;19.034;2022-09-09T14:07:44;100027.94;;;26.51;34.97
41800;BME280;27468;47.460;19.034;2022-09-09T14:10:11;100005.44;;;26.31;35.34
41800;BME280;27468;47.460;19.034;2022-09-09T14:12:37;100017.81;;;26.34;35.44
41800;BME280;27468;47.460;19.034;2022-09-09T14:15:04;99992.00;;;26.10;34.76
41800;BME280;27468;47.460;19.034;2022-09-09T14:17:30;99981.31;;;25.99;35.15
41800;BME280;27468;47.460;19.034;2022-09-09T14:19:56;99993.81;;;25.90;35.82
41800;BME280;27468;47.460;19.034;2022-09-09T14:22:22;100020.81;;;26.00;36.03
41800;BME280;27468;47.460;19.034;2022-09-09T14:24:48;100025.69;;;26.06;35.24
41800;BME280;27468;47.460;19.034;2022-09-09T14:27:14;100030.09;;;25.97;35.73
41800;BME280;27468;47.460;19.034;2022-09-09T14:29:40;100021.41;;;25.94;36.97
41800;BME280;27468;47.460;19.034;2022-09-09T14:32:05;99959.50;;;25.51;35.88
41800;BME280;27468;47.460;19.034;2022-09-09T14:34:31;100001.56;;;25.74;35.68
41800;BME280;27468;47.460;19.034;2022-09-09T14:36:58;100016.00;;;25.94;36.27
41800;BME280;27468;47.460;19.034;2022-09-09T14:39:23;99996.09;;;25.95;35.95
41800;BME280;27468;47.460;19.034;2022-09-09T14:41:48;99985.97;;;25.87;35.36
41800;BME280;27468;47.460;19.034;2022-09-09T14:44:14;99989.72;;;25.96;36.20
41800;BME280;27468;47.460;19.034;2022-09-09T14:46:41;99997.38;;;25.91;37.12
41800;BME280;27468;47.460;19.034;2022-09-09T14:49:07;99993.81;;;25.90;36.77
41800;BME280;27468;47.460;19.034;2022-09-09T14:51:33;100013.97;;;25.86;37.58
41800;BME280;27468;47.460;19.034;2022-09-09T14:53:59;100019.81;;;25.91;37.74
41800;BME280;27468;47.460;19.034;2022-09-09T14:56:27;100025.31;;;25.80;37.37
41800;BME280;27468;47.460;19.034;2022-09-09T14:58:56;99993.06;;;25.58;37.38
41800;BME280;27468;47.460;19.034;2022-09-09T15:01:22;100016.78;;;25.75;37.36
41800;BME280;27468;47.460;19.034;2022-09-09T15:03:58;99995.31;;;25.53;37.49
41800;BME280;27468;47.460;19.034;2022-09-09T15:06:25;100000.56;;;25.75;36.93